Latest Coastal Weather Observations for Moorabbin Airport

IDV60701

Issued at 12:51 am EST Thursday 3 September 2015 (issued every 10 minutes, with the page automatically refreshed every 10 minutes)

About coastal observations | Map of coastal stations | Coastal observations for VIC | Marine services | Other Formats
Station Details ID: 086077 Name: MOORABBIN AIRPORT Lat: -37.98 Lon: 145.10 Height: 12.1 m
Data from the previous 72 hours. | See also: Recent months at Moorabbin Airport
Date/Time
EST
Temp

°C
Wind Pressure Rain
since 9am
mm
Weather Cloud Vis
km
Sea
Height
m
Swell
Dir
 
Speed
knots
Gust
knots
hPa Trend Height
m
Period
s
Dir
03/12:30am 10.7 ESE 1 3 1007.4 - 3.6 - Cloudy 10 - - - -
03/12:00am 10.6 CALM 0 0 1007.4 - 3.6 - Cloudy 10 - - - -
 
Date/Time
EST
Temp

°C
Wind Pressure Rain
since 9am
mm
Weather Cloud Vis
km
Sea
Height
m
Swell
Dir
 
Speed
knots
Gust
knots
hPa Trend Height
m
Period
s
Dir
02/11:30pm 11.0 E 1 3 1007.5 - 3.6 - Partly cloudy 10 - - - -
02/11:00pm 11.0 CALM 0 0 1007.6 - 3.6 - Partly cloudy 10 - - - -
02/10:30pm 11.2 E 4 5 1007.9 - 3.6 - Partly cloudy 10 - - - -
02/10:00pm 11.2 ESE 6 7 1008.1 - 3.4 - Partly cloudy 10 - - - -
02/09:30pm 11.4 ESE 5 6 1008.3 - 3.4 - Partly cloudy 10 - - - -
02/09:00pm 11.8 ENE 7 9 1008.5 - 3.2 Rain Cloudy 10 - - - -
02/08:30pm 12.0 ENE 6 7 1008.7 - 2.8 - Cloudy 10 - - - -
02/08:00pm 12.2 NNE 4 5 1008.7 - 2.2 - Cloudy 10 - - - -
02/07:30pm 12.6 NNW 6 7 1008.7 - 1.4 - Cloudy 10 - - - -
02/07:00pm 13.3 N 7 8 1008.4 - 0.6 - Cloudy 10 - - - -
02/06:30pm 14.6 NNE 7 11 1008.0 - 0.2 - Partly cloudy 10 - - - -
02/06:00pm 15.7 NNE 9 15 1007.8 - 0.2 Recent precip. Cloudy 10 - - - -
02/05:30pm 16.4 NNE 6 17 1007.5 - 0.0 - Partly cloudy 10 - - - -
02/05:00pm 16.3 NNE 4 6 1007.0 - 0.0 - Partly cloudy 10 - - - -
02/04:30pm 16.8 NE 7 9 1006.9 - 0.0 - Partly cloudy 10 - - - -
02/04:00pm 17.2 NNE 8 11 1006.7 - 0.0 - Cloudy 10 - - - -
02/03:30pm 17.3 NE 11 15 1006.7 - 0.0 - Partly cloudy 10 - - - -
02/03:00pm 17.5 NE 12 15 1006.9 - 0.0 - Mostly cloudy 10 - - - -
02/02:30pm 17.7 N 11 15 1007.3 - 0.0 - - 10 - - - -
02/02:00pm 18.4 NNE 9 15 1007.9 - 0.0 - Partly cloudy 10 - - - -
02/01:30pm 16.8 NNE 11 14 1008.5 - 0.0 - Cloudy 10 - - - -
02/01:00pm 16.4 NNE 12 15 1009.3 - 0.0 - Partly cloudy 10 - - - -
02/12:30pm 16.8 N 15 20 1009.8 - 0.0 - Partly cloudy 10 - - - -
02/12:00pm 16.7 NNE 15 20 1010.1 - 0.0 - - 10 - - - -
02/11:30am 15.5 NNE 14 20 1010.7 - 0.0 - - 10 - - - -
02/11:00am 14.6 NNE 14 19 1011.1 - 0.0 - - 10 - - - -
02/10:30am 14.6 N 15 22 1011.2 - 0.0 - - 10 - - - -
02/10:00am 14.5 N 14 20 1011.5 - 0.0 - - 10 - - - -
02/09:45am 14.4 N 15 26 1011.6 - 0.0 - - 10 - - - -
02/09:30am 14.7 NNE 14 21 1011.9 - 0.0 - - 10 - - - -
02/09:00am 13.2 NNE 15 20 1012.1 - 0.0 - - 10 - - - -
02/08:30am 12.9 N 14 19 1012.1 - 0.0 - - 10 - - - -
02/08:00am 12.3 NNE 13 18 1012.0 - 0.0 - - 10 - - - -
02/07:30am 11.1 N 12 15 1012.2 - 0.0 - - 10 - - - -
02/07:00am 11.0 N 11 14 1012.2 - 0.0 - - 10 - - - -
02/06:30am 10.6 NNE 11 14 1012.1 - 0.0 - Partly cloudy 10 - - - -
02/06:00am 10.6 N 10 13 1012.3 - 0.0 - Cloudy 10 - - - -
02/05:30am 10.1 N 10 13 1012.3 - 0.0 - - 10 - - - -
02/05:00am 9.9 N 9 11 1012.3 - 0.0 - Partly cloudy 10 - - - -
02/04:30am 9.9 N 9 11 1012.3 - 0.0 - Partly cloudy 10 - - - -
02/04:00am 10.0 NNE 9 12 1012.3 - 0.0 - - 10 - - - -
02/03:30am 9.6 N 8 10 1012.4 - 0.0 - - 10 - - - -
02/03:00am 9.5 N 8 11 1012.5 - 0.0 - - 10 - - - -
02/02:30am 9.2 N 7 9 1012.9 - 0.0 - - 10 - - - -
02/02:00am 9.4 N 5 6 1013.3 - 0.0 - - 10 - - - -
02/01:30am 8.9 N 7 10 1013.3 - 0.0 - - 10 - - - -
02/01:00am 9.2 N 9 11 1013.3 - 0.0 - - 10 - - - -
02/12:30am 8.9 N 7 8 1013.4 - 0.0 - - 10 - - - -
02/12:00am 9.3 NNE 8 11 1013.4 - 0.0 - - 10 - - - -
 
Date/Time
EST
Temp

°C
Wind Pressure Rain
since 9am
mm
Weather Cloud Vis
km
Sea
Height
m
Swell
Dir
 
Speed
knots
Gust
knots
hPa Trend Height
m
Period
s
Dir
01/11:30pm 9.6 NNE 9 11 1013.6 - 0.0 - - 10 - - - -
01/11:00pm 9.9 NNE 10 13 1013.9 - 0.0 - - 10 - - - -
01/10:30pm 8.3 NNE 5 7 1014.2 - 0.0 - - 10 - - - -
01/10:00pm 8.1 N 5 6 1014.5 - 0.0 - - 10 - - - -
01/09:30pm 7.9 N 3 4 1014.4 - 0.0 - Partly cloudy 10 - - - -
01/09:00pm 8.1 ESE 3 4 1014.4 - 0.0 - Partly cloudy 10 - - - -
01/08:30pm 8.3 E 4 5 1014.1 - 0.0 - - 10 - - - -
01/08:00pm 9.6 E 6 7 1014.0 - 0.0 - - 10 - - - -
01/07:30pm 9.7 E 5 7 1013.9 - 0.0 - - 10 - - - -
01/07:00pm 9.7 ESE 6 7 1013.9 - 0.0 - - 10 - - - -
01/06:30pm 9.7 ESE 6 7 1013.7 - 0.0 - - 10 - - - -
01/06:00pm 10.7 SE 6 8 1013.4 - 0.0 - - 10 - - - -
01/05:30pm 11.5 SE 5 6 1013.2 - 0.0 - - 10 - - - -
01/05:00pm 12.6 SE 6 8 1013.0 - 0.0 - - 10 - - - -
01/04:30pm 12.6 SSW 7 9 1013.4 - 0.0 - - 10 - - - -
01/04:00pm 12.8 SW 8 11 1013.5 - 0.0 - - 10 - - - -
01/03:30pm 12.6 SW 9 11 1013.7 - 0.0 - - 10 - - - -
01/03:00pm 13.0 SW 9 11 1013.9 - 0.0 - - 10 - - - -
01/02:30pm 12.6 S 8 10 1013.8 - 0.0 - - 10 - - - -
01/02:00pm 12.2 S 7 10 1014.3 - 0.0 - - 10 - - - -
01/01:30pm 12.4 S 6 9 1014.9 - 0.0 - - 10 - - - -
01/01:00pm 11.7 SSW 6 8 1015.5 - 0.0 - - 10 - - - -
01/12:30pm 11.1 SSW 8 11 1016.2 - 0.0 - - 10 - - - -
01/12:00pm 11.0 SW 9 11 1016.9 - 0.0 - - 10 - - - -
01/11:30am 10.9 SW 9 11 1017.2 - 0.0 - Partly cloudy 10 - - - -
01/11:00am 11.2 SW 3 5 1017.2 - 0.0 - - 10 - - - -
01/10:30am 11.2 N 3 7 1017.2 - 0.0 - - 10 - - - -
01/10:00am 10.7 WNW 2 5 1017.3 - 0.0 - - 10 - - - -
01/09:30am 10.5 NNW 2 4 1017.4 - 0.0 - - 10 - - - -
01/09:00am 9.3 NNW 4 6 1017.5 - 0.0 - - 10 - - - -
01/08:30am 8.5 NNW 4 5 1017.6 - 0.0 - - 10 - - - -
01/08:00am 7.4 NNW 3 5 1017.3 - 0.0 - - 10 - - - -
01/07:30am 5.4 NNE 2 3 1017.1 - 0.0 - - 10 - - - -
01/07:00am 4.3 NE 3 4 1016.9 - 0.0 - - 10 - - - -
01/06:30am 4.3 SE 2 4 1016.8 - 0.0 - - 10 - - - -
01/06:00am 5.1 CALM 0 0 1016.6 - 0.0 - - 10 - - - -
01/05:30am 6.2 E 1 3 1016.7 - 0.0 - Partly cloudy 10 - - - -
01/05:00am 6.6 SE 4 4 1016.8 - 0.0 - Partly cloudy 10 - - - -
01/04:30am 8.3 S 3 4 1016.8 - 0.0 - Cloudy 10 - - - -
01/04:00am 9.0 SSW 3 4 1017.0 - 0.0 - Cloudy 10 - - - -
01/03:30am 9.4 ENE 4 5 1017.2 - 0.0 - Cloudy 10 - - - -
01/03:00am 9.7 ENE 2 5 1017.4 - 0.0 - Cloudy 10 - - - -
01/02:30am 9.6 ESE 4 5 1017.6 - 0.0 - Cloudy 10 - - - -
01/02:00am 9.5 S 4 5 1018.1 - 0.0 - Cloudy 10 - - - -
01/01:30am 9.5 S 4 5 1018.4 - 0.0 - Cloudy 10 - - - -
01/01:00am 9.5 SSW 3 4 1018.6 - 0.0 - Cloudy 10 - - - -
01/12:30am 9.6 S 3 4 1018.6 - 0.0 - Cloudy 10 - - - -
01/12:00am 9.8 S 2 6 1018.5 - 0.0 - Cloudy 10 - - - -
 
Date/Time
EST
Temp

°C
Wind Pressure Rain
since 9am
mm
Weather Cloud Vis
km
Sea
Height
m
Swell
Dir
 
Speed
knots
Gust
knots
hPa Trend Height
m
Period
s
Dir
31/11:30pm 9.9 SSW 6 7 1018.6 - 0.0 - Cloudy 10 - - - -
31/11:00pm 9.8 SSE 3 5 1018.8 - 0.0 - Cloudy 10 - - - -
31/10:30pm 9.8 S 5 6 1018.9 - 0.0 - Cloudy 10 - - - -
31/10:00pm 10.0 SW 4 7 1019.1 - 0.0 - Cloudy 10 - - - -
31/09:30pm 9.9 S 5 6 1019.1 - 0.0 - Cloudy 10 - - - -
31/09:00pm 10.0 S 5 6 1019.2 - 0.0 - Cloudy 10 - - - -
31/08:30pm 10.1 S 5 7 1019.3 - 0.0 - Cloudy 10 - - - -
31/08:00pm 10.1 S 5 7 1019.2 - 0.0 - Cloudy 10 - - - -
31/07:30pm 10.3 S 6 9 1019.0 - 0.0 - Cloudy 10 - - - -
31/07:00pm 10.5 SSW 8 11 1018.9 - 0.0 - Cloudy 10 - - - -
31/06:30pm 10.4 SSW 8 10 1018.9 - 0.0 - Cloudy 10 - - - -
31/06:00pm 10.4 SSW 9 12 1019.0 - 0.0 - Cloudy 10 - - - -
31/05:30pm 10.4 SSW 10 14 1018.9 - 0.0 - Cloudy 10 - - - -
31/05:00pm 10.5 SSW 10 14 1019.0 - 0.0 - Cloudy 10 - - - -
31/04:30pm 10.6 SW 10 14 1019.0 - 0.0 - Cloudy 10 - - - -
31/04:00pm 10.7 SSW 11 15 1018.9 - 0.0 - Partly cloudy 10 - - - -
31/03:30pm 11.0 SW 10 13 1018.8 - 0.0 - Cloudy 10 - - - -
31/03:00pm 10.9 SW 10 15 1018.9 - 0.0 - Cloudy 10 - - - -
31/02:30pm 11.1 SW 9 13 1019.1 - 0.0 - Cloudy 10 - - - -
31/02:00pm 11.2 SW 9 12 1019.2 - 0.0 - Cloudy 10 - - - -
31/01:30pm 11.5 SW 10 13 1019.3 - 0.0 - Cloudy 10 - - - -
31/01:00pm 11.6 SW 7 10 1019.7 - 0.0 - Cloudy 10 - - - -
31/12:30pm 11.3 SW 8 11 1020.1 - 0.0 - Cloudy 10 - - - -
31/12:00pm 11.0 SW 8 11 1020.6 - 0.0 - Cloudy 10 - - - -
31/11:30am 11.4 SW 5 9 1020.8 - 0.0 - Cloudy 10 - - - -
31/11:00am 10.7 SW 6 9 1021.0 - 0.0 - Cloudy 10 - - - -
31/10:30am 11.1 SW 6 9 1021.0 - 0.0 - Cloudy 10 - - - -
31/10:00am 10.7 S 5 8 1021.2 - 0.0 - Cloudy 10 - - - -
31/09:30am 10.2 SSE 8 11 1021.4 - 0.0 - Cloudy 10 - - - -
31/09:00am 10.2 S 7 9 1021.3 - 0.0 - Cloudy 10 - - - -
31/08:30am 9.9 SSE 6 8 1021.3 - 0.0 - Cloudy 10 - - - -
31/08:00am 9.5 S 4 6 1021.2 - 0.0 - Cloudy 10 - - - -
31/07:30am 9.1 S 5 6 1021.0 - 0.0 - Cloudy 10 - - - -
31/07:00am 8.9 WSW 3 5 1020.8 - 0.0 - Cloudy 10 - - - -
31/06:30am 9.1 NW 3 6 1020.7 - 0.0 - Cloudy 10 - - - -
31/06:00am 9.1 SSW 6 9 1020.8 - 0.0 - Cloudy 10 - - - -
31/05:30am 8.6 WSW 3 4 1020.7 - 0.0 - Cloudy 10 - - - -
31/05:00am 8.8 WSW 5 7 1020.6 - 0.0 - Cloudy 10 - - - -
31/04:30am 8.5 SW 5 7 1020.8 - 0.0 - Cloudy 10 - - - -
31/04:00am 8.8 SW 6 8 1020.9 - 0.0 - Cloudy 10 - - - -
31/03:30am 8.9 SSW 7 10 1020.8 - 0.0 - Cloudy 10 - - - -
31/03:00am 9.0 S 6 8 1020.9 - 0.0 - Cloudy 10 - - - -
31/02:30am 9.0 S 7 8 1021.4 - 0.0 - Cloudy 10 - - - -
31/02:00am 9.1 SSW 5 7 1021.8 - 0.0 - Partly cloudy 10 - - - -
31/01:30am 9.2 SSW 4 6 1022.0 - 0.0 - Cloudy 10 - - - -
31/01:00am 9.3 SSW 6 9 1022.2 - 0.0 - Partly cloudy 10 - - - -

Other Formats:

Comma delimited format used in spreadsheet applications
http://www.bom.gov.au/fwo/IDV60701/IDV60701.94870.axf

JavaScript Object Notation format (JSON) in row-major order
http://www.bom.gov.au/fwo/IDV60701/IDV60701.94870.json